createdAt,value
2022-08-04T00:04:03.909Z,72.20
2022-08-04T00:09:09.087Z,72.80
2022-08-04T00:14:15.626Z,73.40
2022-08-04T00:19:19.252Z,73.50
2022-08-04T00:24:18.921Z,72.90
2022-08-04T00:29:18.506Z,73.90
2022-08-04T00:34:17.259Z,75.20
2022-08-04T00:39:19.762Z,75.50
2022-08-04T00:44:31.721Z,75.80
2022-08-04T00:49:56.441Z,76.10
2022-08-04T00:55:09.092Z,75.80
2022-08-04T01:00:12.651Z,76.70
2022-08-04T01:05:19.477Z,78.60
2022-08-04T01:10:26.684Z,77.20
2022-08-04T01:15:53.775Z,77.70
2022-08-04T01:21:27.650Z,77.70
2022-08-04T01:26:53.770Z,78.10
2022-08-04T01:32:03.551Z,77.50
2022-08-04T01:37:09.682Z,79.10
2022-08-04T01:42:09.732Z,79.50
2022-08-04T01:47:11.240Z,79.40
2022-08-04T01:52:11.298Z,79.70
2022-08-04T01:57:37.495Z,80.40
2022-08-04T02:02:31.613Z,79.60
2022-08-04T02:07:41.503Z,79.90
2022-08-04T02:12:54.177Z,80.40
2022-08-04T02:18:02.123Z,79.90
2022-08-04T02:23:04.416Z,80.30
2022-08-04T02:28:14.171Z,80.40
2022-08-04T02:33:16.835Z,80.40
2022-08-04T02:38:26.003Z,80.90
2022-08-04T02:43:50.814Z,81.40
2022-08-04T02:48:48.198Z,80.90
2022-08-04T02:53:48.155Z,81.00
2022-08-04T02:58:50.336Z,81.10
2022-08-04T03:03:59.598Z,81.10
2022-08-04T03:09:20.148Z,80.80
2022-08-04T03:14:54.336Z,80.70
2022-08-04T03:20:23.281Z,80.00
2022-08-04T03:25:57.476Z,80.10
2022-08-04T03:31:23.402Z,80.10
2022-08-04T03:36:54.373Z,80.60
2022-08-04T03:42:18.378Z,80.80
2022-08-04T03:47:42.193Z,81.40
2022-08-04T03:53:29.603Z,80.50
2022-08-04T03:58:48.874Z,80.40
2022-08-04T04:04:15.527Z,81.10
2022-08-04T04:09:54.828Z,81.00
2022-08-04T04:15:10.053Z,81.40
2022-08-04T04:20:41.596Z,82.40
2022-08-04T04:25:51.611Z,82.20
2022-08-04T04:31:02.395Z,83.20
2022-08-04T04:36:12.143Z,83.50
2022-08-04T04:41:29.849Z,84.20
2022-08-04T04:46:39.177Z,84.10
2022-08-04T04:51:44.714Z,85.50
2022-08-04T04:56:49.873Z,85.60
2022-08-04T05:02:26.305Z,86.30
2022-08-04T05:07:57.610Z,85.70
2022-08-04T05:14:36.038Z,84.70
2022-08-04T05:18:39.483Z,86.00
2022-08-04T05:23:44.197Z,86.90
2022-08-04T05:28:53.164Z,86.90
2022-08-04T05:33:56.775Z,88.60
2022-08-04T05:38:59.877Z,87.80
2022-08-04T05:44:02.067Z,87.90
2022-08-04T05:49:00.379Z,87.90
2022-08-04T05:53:59.822Z,87.70
2022-08-04T05:59:00.978Z,86.90
2022-08-04T06:04:01.698Z,87.10
2022-08-04T06:09:00.330Z,88.10
2022-08-04T06:14:04.442Z,87.40
2022-08-04T06:20:01.199Z,88.30
2022-08-04T06:24:27.372Z,88.00
2022-08-04T06:29:30.484Z,86.80
2022-08-04T06:34:29.185Z,87.10
2022-08-04T06:39:30.771Z,86.60
2022-08-04T06:44:32.085Z,86.70
2022-08-04T06:49:32.072Z,87.00
2022-08-04T06:54:52.800Z,86.60
2022-08-04T06:59:54.981Z,85.80
2022-08-04T07:04:53.949Z,86.20
2022-08-04T07:09:52.652Z,84.90
2022-08-04T07:14:53.553Z,84.80
2022-08-04T07:19:53.009Z,84.80
2022-08-04T07:24:56.968Z,83.70
2022-08-04T07:29:56.964Z,83.20
2022-08-04T07:34:56.257Z,82.70
2022-08-04T07:39:54.891Z,80.90
2022-08-04T07:44:53.317Z,80.20
2022-08-04T07:49:57.128Z,79.60
2022-08-04T07:54:56.332Z,79.20
2022-08-04T07:59:54.788Z,79.40
2022-08-04T08:04:54.618Z,77.30
2022-08-04T08:16:41.937Z,76.60
2022-08-04T08:21:59.542Z,76.60
2022-08-04T08:26:58.842Z,74.70
2022-08-04T08:32:02.681Z,74.30
2022-08-04T08:37:13.652Z,72.20
2022-08-04T08:44:06.556Z,73.30
2022-08-04T08:49:00.855Z,70.70
2022-08-04T09:01:07.103Z,72.60
2022-08-04T09:06:37.850Z,68.60
2022-08-04T09:11:43.231Z,68.20
2022-08-04T09:16:50.516Z,66.70
2022-08-04T09:21:55.294Z,65.90
2022-08-04T09:26:59.767Z,65.50
2022-08-04T09:32:08.062Z,63.90
2022-08-04T09:37:14.779Z,64.00
2022-08-04T09:42:26.067Z,63.30
2022-08-04T09:47:39.663Z,63.10
2022-08-04T09:52:48.046Z,65.00
2022-08-04T09:57:59.292Z,64.30
2022-08-04T10:03:02.686Z,64.40
2022-08-04T10:08:24.221Z,62.60
2022-08-04T10:13:33.819Z,62.80
2022-08-04T10:18:46.768Z,61.30
2022-08-04T10:24:00.338Z,61.30
2022-08-04T10:29:04.245Z,61.20
2022-08-04T10:34:12.620Z,59.60
2022-08-04T10:39:42.965Z,59.80
2022-08-04T10:44:53.191Z,58.40
2022-08-04T10:50:02.522Z,59.00
2022-08-04T10:55:07.992Z,59.00
2022-08-04T11:00:09.233Z,57.50
2022-08-04T11:05:19.792Z,56.70
2022-08-04T11:10:21.522Z,57.80
2022-08-04T11:15:26.185Z,57.90
2022-08-04T11:20:35.985Z,55.60
2022-08-04T11:25:42.869Z,55.50
2022-08-04T11:30:48.716Z,55.40
2022-08-04T11:35:53.752Z,55.20
2022-08-04T11:41:02.690Z,55.30
2022-08-04T11:46:08.409Z,54.80
2022-08-04T11:51:09.565Z,54.60
2022-08-04T11:56:27.669Z,54.20
2022-08-04T12:02:03.639Z,54.10
2022-08-04T12:12:33.784Z,53.90
2022-08-04T12:17:52.715Z,53.50
2022-08-04T12:22:56.605Z,52.20
2022-08-04T12:28:01.177Z,51.40
2022-08-04T12:33:03.877Z,51.00
2022-08-04T12:38:06.578Z,51.30
2022-08-04T12:43:12.867Z,51.20
2022-08-04T12:48:11.438Z,50.60
2022-08-04T12:53:19.542Z,51.00
2022-08-04T12:58:42.959Z,50.80
2022-08-04T13:03:45.327Z,51.20
2022-08-04T13:08:47.953Z,50.50
2022-08-04T13:13:47.134Z,49.80
2022-08-04T13:18:50.084Z,50.00
2022-08-04T13:24:10.605Z,50.60
2022-08-04T13:30:24.950Z,49.90
2022-08-04T13:34:34.346Z,50.20
2022-08-04T13:39:35.910Z,50.60
2022-08-04T13:44:37.725Z,50.60
2022-08-04T13:49:42.688Z,50.50
2022-08-04T13:54:55.848Z,50.50
2022-08-04T13:59:57.579Z,50.00
2022-08-04T14:04:58.542Z,49.90
2022-08-04T14:10:03.174Z,50.60
2022-08-04T14:15:02.374Z,50.30
2022-08-04T14:20:02.125Z,50.40
2022-08-04T14:25:05.326Z,49.30
2022-08-04T14:30:03.597Z,49.40
2022-08-04T14:35:12.303Z,49.10
2022-08-04T14:40:30.789Z,50.20
2022-08-04T14:45:35.485Z,50.30
2022-08-04T14:50:39.429Z,50.40
2022-08-04T14:55:41.091Z,49.60
2022-08-04T15:07:34.552Z,49.40
2022-08-04T15:12:34.339Z,49.50
2022-08-04T15:17:32.981Z,48.60
2022-08-04T15:22:31.591Z,48.80
2022-08-04T15:27:35.959Z,48.50
2022-08-04T15:32:36.009Z,48.90
2022-08-04T15:37:41.055Z,48.50
2022-08-04T15:42:48.247Z,48.80
2022-08-04T15:48:15.494Z,49.10
2022-08-04T15:53:14.492Z,49.50
2022-08-04T15:58:24.175Z,49.20
2022-08-04T16:03:58.946Z,52.90
2022-08-04T16:09:00.876Z,55.30
2022-08-04T16:14:12.767Z,56.60
2022-08-04T16:19:13.653Z,57.70
2022-08-04T16:24:21.978Z,57.60
2022-08-04T16:29:36.523Z,58.00
2022-08-04T16:34:47.180Z,58.00
2022-08-04T16:39:50.086Z,58.00
2022-08-04T16:45:00.700Z,58.20
2022-08-04T16:50:03.530Z,58.40
2022-08-04T16:55:01.834Z,58.40
2022-08-04T17:00:01.535Z,58.30
2022-08-04T17:05:07.291Z,58.60
2022-08-04T17:10:06.723Z,58.40
2022-08-04T17:15:21.619Z,58.40
2022-08-04T17:20:27.927Z,58.60
2022-08-04T17:25:52.973Z,59.20
2022-08-04T17:30:56.108Z,59.80
2022-08-04T17:35:57.275Z,61.70
2022-08-04T17:40:59.956Z,62.70
2022-08-04T17:46:29.013Z,63.20
2022-08-04T17:52:04.322Z,64.40
2022-08-04T17:57:02.602Z,65.00
2022-08-04T18:08:38.746Z,66.00
2022-08-04T18:13:42.674Z,67.30
2022-08-04T18:18:41.594Z,67.80
2022-08-04T18:23:50.868Z,67.60
2022-08-04T18:28:49.482Z,68.00
2022-08-04T18:33:57.068Z,67.70
2022-08-04T18:39:13.834Z,67.30
2022-08-04T18:44:14.652Z,67.60
2022-08-04T18:50:59.785Z,67.90
2022-08-04T18:54:35.861Z,67.80
2022-08-04T18:59:34.160Z,68.30
2022-08-04T19:04:36.990Z,68.20
2022-08-04T19:09:51.476Z,68.30
2022-08-04T19:14:55.098Z,68.50
2022-08-04T19:19:56.760Z,68.60
2022-08-04T19:24:57.218Z,68.60
2022-08-04T19:29:55.464Z,69.10
2022-08-04T19:34:53.729Z,69.50
2022-08-04T19:39:52.959Z,69.40
2022-08-04T19:44:53.682Z,70.00
2022-08-04T19:50:04.108Z,70.40
2022-08-04T19:55:10.935Z,70.20
2022-08-04T20:00:15.245Z,70.60
2022-08-04T20:05:14.633Z,70.40
2022-08-04T20:10:14.935Z,71.40
2022-08-04T20:15:15.160Z,71.60
2022-08-04T20:20:14.964Z,72.10
2022-08-04T20:25:35.552Z,72.30
2022-08-04T20:30:34.141Z,72.60
2022-08-04T20:35:45.918Z,72.30
2022-08-04T20:40:51.651Z,74.30
2022-08-04T20:45:56.480Z,75.00
2022-08-04T20:50:58.001Z,74.70
2022-08-04T20:55:56.434Z,75.50
2022-08-04T21:00:57.067Z,75.80
2022-08-04T21:05:56.772Z,75.90
2022-08-04T21:10:54.997Z,76.00
2022-08-04T21:15:59.124Z,76.10
2022-08-04T21:20:59.117Z,76.20
2022-08-04T21:26:01.949Z,76.70
2022-08-04T21:31:02.470Z,76.80
2022-08-04T21:36:11.837Z,77.50
2022-08-04T21:41:10.728Z,77.10
2022-08-04T21:46:12.224Z,77.20
2022-08-04T21:51:21.790Z,77.90
2022-08-04T21:56:38.389Z,78.20
2022-08-04T22:01:50.567Z,78.00
2022-08-04T22:06:52.804Z,77.90
2022-08-04T22:11:52.342Z,78.00
2022-08-04T22:16:51.937Z,78.00
2022-08-04T22:21:54.150Z,78.30
2022-08-04T22:26:53.429Z,78.50
2022-08-04T22:31:56.240Z,79.10
2022-08-04T22:36:56.749Z,79.40
2022-08-04T22:42:03.858Z,79.30
2022-08-04T22:47:02.845Z,79.20
2022-08-04T22:52:10.463Z,79.20
2022-08-04T22:57:16.929Z,80.20
2022-08-04T23:02:15.138Z,79.90
2022-08-04T23:07:15.355Z,80.80
2022-08-04T23:12:29.156Z,80.60
2022-08-04T23:17:31.942Z,81.00
2022-08-04T23:22:43.574Z,81.00
2022-08-04T23:27:50.449Z,81.80
2022-08-04T23:32:50.026Z,81.50
2022-08-04T23:37:56.252Z,81.50
2022-08-04T23:42:55.716Z,82.30
2022-08-04T23:48:15.342Z,82.60
2022-08-04T23:53:18.614Z,82.70
2022-08-04T23:58:26.781Z,82.90
